Friday, August 28, 2015, 10:41 AM EDT

KPHF, Williamsburg International Airport

Location: Newport News, VA, United States Lat: 37.133
Local Time: 10:41 AM EDT (14:41 GMT) Lon: -76.5
Time Zone: US/Eastern Elev: 42 ft

Show me the last for .
Show Decoded

2015-08-28 09:54 METAR KPHF 281354Z 04008KT 340V060 10SM CLR 26/16 A3019 RMK AO2 SLP222 T02560161
                 =
2015-08-28 08:54 METAR KPHF 281254Z 02005KT 10SM CLR 24/18 A3018 RMK AO2 SLP218 T02440183 =
2015-08-28 07:54 METAR KPHF 281154Z 35004KT 10SM CLR 21/18 A3016 RMK AO2 SLP211 T02110178 10211
                 20156 53012 =
2015-08-28 06:54 METAR KPHF 281054Z 35003KT 9SM CLR 17/16 A3014 RMK AO2 SLP205 T01670156 =
2015-08-28 05:54 METAR KPHF 280954Z 35006KT 10SM CLR 18/16 A3013 RMK AO2 SLP201 T01830161 =
2015-08-28 04:54 METAR KPHF 280854Z 00000KT 10SM CLR 18/16 A3012 =
2015-08-28 03:54 METAR KPHF 280754Z 00000KT 10SM CLR 18/16 A3011 RMK AO2 SLP197 T01780156 =
2015-08-28 02:54 METAR KPHF 280654Z 07003KT 10SM CLR 17/16 A3012 RMK AO2 SLP198 T01720156 =
2015-08-28 01:54 METAR KPHF 280554Z 00000KT 10SM CLR 17/14 A3013 RMK AO2 SLP203 T01670144 10228
                 20161 50003 =
2015-08-28 00:54 METAR KPHF 280454Z 01003KT 10SM BKN095 17/15 A3014 RMK AO2 SLP204 T01720150
                 402830172 =
2015-08-27 23:54 METAR KPHF 280354Z 00000KT 10SM CLR 18/15 A3013 RMK AO2 SLP203 T01780150 =
2015-08-27 22:54 METAR KPHF 280254Z 35003KT 10SM CLR 18/15 A3013 RMK AO2 SLP200 T01780150 51014 =
2015-08-27 21:54 METAR KPHF 280154Z AUTO 02003KT 10SM CLR 19/16 A3012 RMK AO2 SLP199 T01940156 =
2015-08-27 20:54 METAR KPHF 280054Z AUTO 00000KT 10SM CLR 21/15 A3011 RMK AO2 SLP194 T02060150 =
2015-08-27 19:54 METAR KPHF 272354Z AUTO 06003KT 10SM CLR 22/14 A3008 RMK AO2 SLP186 T02220139
                 10283 20222 50001 =
2015-08-27 18:54 METAR KPHF 272254Z AUTO 04004KT 10SM CLR 25/13 A3009 RMK AO2 SLP188 T02500128 =
2015-08-27 17:54 METAR KPHF 272154Z AUTO 09009KT 10SM CLR 25/12 A3008 RMK AO2 SLP186 T02500117 =
2015-08-27 16:54 METAR KPHF 272054Z AUTO VRB06KT 10SM CLR 27/13 A3008 RMK AO2 SLP184 T02720133
                 56006 =
2015-08-27 15:54 METAR KPHF 271954Z AUTO 07010KT 10SM CLR 27/14 A3008 RMK AO2 SLP184 T02720144 =
2015-08-27 14:54 METAR KPHF 271854Z AUTO 06009KT 10SM CLR 27/15 A3009 RMK AO2 SLP187 T02720150 =
2015-08-27 13:54 METAR KPHF 271754Z 02007KT 350V050 10SM CLR 26/16 A3010 RMK AO2 SLP190 T02610156
                 10261 20217 58008 =
2015-08-27 12:54 METAR KPHF 271654Z 03008KT 10SM CLR 26/15 A3011 RMK AO2 SLP195 T02560150 =
2015-08-27 11:54 METAR KPHF 271554Z 07010KT 10SM CLR 25/16 A3012 RMK AO2 SLP198 T02500156 =
2015-08-27 10:54 METAR KPHF 271454Z 05008KT 10SM CLR 26/16 A3012 RMK AO2 SLP198 T02560156 53013 =

Support USWX by starting your Amazon purchase here.